Time;durP1;ratioP1;P1;durP2;ratioP2;P2;SDS_P1;SDS_P2;PMS_P1;PMS_P2;Temp;Humidity;BMP_temperature;BMP_pressure;BME280_temperature;BME280_humidity;BME280_pressure;Samples;Min_cycle;Max_cycle;Signal;HPM_P1;HPM_P2
2022/11/06 00:00:05;;;;;;;;;;;9.80;89.40;;;;;;5003207;28;1416;-74
2022/11/06 00:02:33;;;;;;;;;;;9.90;90.00;;;;;;5005510;28;1266;-74
2022/11/06 00:07:46;;;;;;;;;;;10.00;88.10;;;;;;5007291;28;1084;-73
2022/11/06 00:10:14;;;;;;;;;;;9.90;89.10;;;;;;5004577;28;1017;-72
2022/11/06 00:12:41;;;;;;;;;;;9.90;88.90;;;;;;5003244;28;1278;-72
2022/11/06 00:15:10;;;;;;;;;;;9.90;89.20;;;;;;5003996;28;1102;-74
2022/11/06 00:17:37;;;;;;;;;;;9.90;88.80;;;;;;5003442;28;1028;-72
2022/11/06 00:20:06;;;;;;;;;;;9.90;88.60;;;;;;5008460;28;915;-74
2022/11/06 00:22:34;;;;;;;;;;;10.00;87.70;;;;;;5002188;28;1293;-74
2022/11/06 00:25:03;;;;;;;;;;;9.90;88.80;;;;;;5003901;28;1906;-72
2022/11/06 00:27:30;;;;;;;;;;;10.00;87.80;;;;;;5002502;28;1374;-73
2022/11/06 00:29:58;;;;;;;;;;;10.00;87.40;;;;;;5003694;28;1022;-72
2022/11/06 00:32:26;;;;;;;;;;;10.00;87.60;;;;;;5005892;28;1726;-72
2022/11/06 00:34:53;;;;;;;;;;;10.00;87.30;;;;;;5007850;28;1498;-73
2022/11/06 00:37:21;;;;;;;;;;;10.00;87.40;;;;;;5003569;28;1234;-74
2022/11/06 00:39:48;;;;;;;;;;;10.10;87.40;;;;;;5004830;28;1045;-72
2022/11/06 00:42:17;;;;;;;;;;;10.10;87.30;;;;;;5005220;28;1579;-73
2022/11/06 00:44:45;;;;;;;;;;;10.10;87.30;;;;;;5002986;28;1906;-73
2022/11/06 00:47:13;;;;;;;;;;;10.10;87.40;;;;;;5000222;28;1934;-72
2022/11/06 00:49:40;;;;;;;;;;;10.20;87.00;;;;;;5005245;28;1017;-73
2022/11/06 00:52:08;;;;;;;;;;;10.20;87.30;;;;;;5002681;28;1304;-72
2022/11/06 00:54:35;;;;;;;;;;;10.10;87.20;;;;;;5003212;28;1874;-70
2022/11/06 00:57:03;;;;;;;;;;;10.10;87.40;;;;;;5000990;28;1917;-68
2022/11/06 00:59:32;;;;;;;;;;;10.10;87.30;;;;;;5003241;28;1826;-70
2022/11/06 01:02:00;;;;;;;;;;;10.10;87.50;;;;;;5002675;28;1429;-68
2022/11/06 01:04:28;;;;;;;;;;;10.10;87.90;;;;;;5003719;28;1047;-69
2022/11/06 01:06:56;;;;;;;;;;;10.10;87.40;;;;;;5001005;28;1914;-68
2022/11/06 01:09:25;;;;;;;;;;;10.10;87.60;;;;;;5005457;28;1042;-70
2022/11/06 01:11:53;;;;;;;;;;;10.10;88.10;;;;;;5004352;28;1287;-70
2022/11/06 01:14:42;;;;;;;;;;;10.00;87.40;;;;;;5004850;28;1413;-70
2022/11/06 01:17:10;;;;;;;;;;;10.10;88.00;;;;;;5001342;28;1089;-70
2022/11/06 01:19:38;;;;;;;;;;;10.10;87.90;;;;;;5001475;28;1046;-70
2022/11/06 01:22:06;;;;;;;;;;;10.10;87.80;;;;;;5002841;28;1685;-70
2022/11/06 01:24:33;;;;;;;;;;;10.20;88.00;;;;;;5004516;28;1102;-71
2022/11/06 01:27:01;;;;;;;;;;;10.10;87.50;;;;;;5003521;28;1983;-70
2022/11/06 01:29:50;;;;;;;;;;;10.20;87.60;;;;;;5003228;28;1554;-69
2022/11/06 01:32:18;;;;;;;;;;;10.20;88.00;;;;;;5003484;28;1296;-70
2022/11/06 01:34:45;;;;;;;;;;;10.20;88.10;;;;;;5004808;28;1485;-68
2022/11/06 01:37:13;;;;;;;;;;;10.20;88.00;;;;;;5002925;28;1061;-71
2022/11/06 01:39:41;;;;;;;;;;;10.20;88.30;;;;;;5001040;28;1124;-69
2022/11/06 01:42:10;;;;;;;;;;;10.20;88.60;;;;;;5003314;28;1293;-68
2022/11/06 01:44:56;;;;;;;;;;;10.10;88.30;;;;;;5001236;28;1037;-69
2022/11/06 01:47:26;;;;;;;;;;;10.10;88.80;;;;;;4999155;28;1915;-69
2022/11/06 01:49:57;;;;;;;;;;;10.10;88.70;;;;;;5004665;28;1121;-70
2022/11/06 01:52:25;;;;;;;;;;;10.20;88.60;;;;;;5002242;28;1383;-70
2022/11/06 01:54:55;;;;;;;;;;;10.20;88.10;;;;;;5004427;28;1006;-70
2022/11/06 01:57:23;;;;;;;;;;;10.20;87.90;;;;;;5009923;28;2572;-70
2022/11/06 01:59:52;;;;;;;;;;;10.20;88.10;;;;;;5005511;28;1056;-70
2022/11/06 02:02:20;;;;;;;;;;;10.20;88.40;;;;;;4998330;28;1839;-70
2022/11/06 02:04:49;;;;;;;;;;;10.10;88.40;;;;;;4998195;28;1053;-70
2022/11/06 02:07:17;;;;;;;;;;;10.20;88.10;;;;;;5002482;28;1953;-70
2022/11/06 02:09:45;;;;;;;;;;;10.20;88.20;;;;;;5001331;28;1078;-70
2022/11/06 02:12:26;;;;;;;;;;;10.20;88.10;;;;;;5003381;28;1502;-69
2022/11/06 02:18:00;;;;;;;;;;;10.20;88.10;;;;;;5777808;22;1481;-90
2022/11/06 02:20:35;;;;;;;;;;;10.20;88.20;;;;;;5001019;28;1658;-88
2022/11/06 02:23:10;;;;;;;;;;;10.20;88.00;;;;;;4981305;28;1506;-90
2022/11/06 02:25:43;;;;;;;;;;;10.40;88.20;;;;;;4980612;28;1906;-88
2022/11/06 02:28:17;;;;;;;;;;;10.10;88.00;;;;;;4980891;28;1371;-88
2022/11/06 02:30:46;;;;;;;;;;;10.20;87.60;;;;;;5001859;28;1413;-88
2022/11/06 02:33:16;;;;;;;;;;;10.20;87.70;;;;;;5016806;28;1622;-88
2022/11/06 02:35:47;;;;;;;;;;;10.20;87.50;;;;;;4993334;28;1642;-89
2022/11/06 02:38:18;;;;;;;;;;;10.40;88.20;;;;;;5003755;28;1378;-89
2022/11/06 02:40:48;;;;;;;;;;;10.40;87.20;;;;;;4990026;28;1658;-88
2022/11/06 02:43:19;;;;;;;;;;;10.40;88.40;;;;;;4983136;28;926;-88
2022/11/06 02:45:49;;;;;;;;;;;10.40;87.80;;;;;;4993580;28;1965;-90
2022/11/06 02:48:19;;;;;;;;;;;10.10;87.40;;;;;;4994251;28;1541;-89
2022/11/06 02:50:49;;;;;;;;;;;10.20;87.30;;;;;;4981884;28;1604;-90
2022/11/06 02:53:21;;;;;;;;;;;10.30;87.70;;;;;;4982577;28;1555;-90
2022/11/06 02:55:55;;;;;;;;;;;10.20;86.80;;;;;;4982032;28;1587;-89
2022/11/06 02:58:28;;;;;;;;;;;10.20;87.90;;;;;;4998848;28;1570;-89
2022/11/06 03:00:59;;;;;;;;;;;10.20;87.50;;;;;;4983550;28;1724;-91
2022/11/06 03:03:28;;;;;;;;;;;10.30;87.30;;;;;;5000352;28;1652;-89
2022/11/06 03:05:58;;;;;;;;;;;10.20;87.30;;;;;;5002253;28;1906;-91
2022/11/06 03:08:30;;;;;;;;;;;10.50;88.00;;;;;;4987790;28;1497;-89
2022/11/06 03:11:01;;;;;;;;;;;10.50;87.80;;;;;;4983150;28;1698;-91
2022/11/06 03:13:39;;;;;;;;;;;10.50;88.60;;;;;;4982936;28;1629;-89
2022/11/06 03:16:13;;;;;;;;;;;10.50;88.80;;;;;;4994083;28;1552;-88
2022/11/06 03:18:43;;;;;;;;;;;10.20;87.90;;;;;;4996608;28;1696;-91
2022/11/06 03:21:16;;;;;;;;;;;10.50;88.70;;;;;;4993298;28;1550;-89
2022/11/06 03:23:47;;;;;;;;;;;10.50;88.50;;;;;;4990187;28;1364;-87
2022/11/06 03:26:17;;;;;;;;;;;10.20;87.10;;;;;;4982203;28;1914;-88
2022/11/06 03:28:54;;;;;;;;;;;10.40;88.40;;;;;;4983641;28;1652;-90
2022/11/06 03:31:26;;;;;;;;;;;10.20;88.70;;;;;;4984640;28;1427;-88
2022/11/06 03:33:57;;;;;;;;;;;10.40;88.70;;;;;;4983866;28;1404;-87
2022/11/06 03:36:26;;;;;;;;;;;10.20;88.20;;;;;;5010046;28;994;-88
2022/11/06 03:38:59;;;;;;;;;;;10.20;88.00;;;;;;5007949;28;1717;-90
2022/11/06 03:41:30;;;;;;;;;;;10.20;88.00;;;;;;4987152;28;1553;-89
2022/11/06 03:44:03;;;;;;;;;;;10.20;88.00;;;;;;4990485;28;986;-88
2022/11/06 03:46:36;;;;;;;;;;;10.20;88.40;;;;;;4993414;28;1907;-86
2022/11/06 03:49:05;;;;;;;;;;;10.00;88.30;;;;;;4997281;28;1360;-88
2022/11/06 03:51:38;;;;;;;;;;;10.30;87.10;;;;;;4993928;28;1078;-88
2022/11/06 03:54:07;;;;;;;;;;;10.30;87.70;;;;;;4992692;28;1707;-89
2022/11/06 03:56:36;;;;;;;;;;;10.50;88.10;;;;;;4996936;28;1587;-89
2022/11/06 03:59:06;;;;;;;;;;;10.30;87.90;;;;;;4996380;28;1412;-89
2022/11/06 04:01:36;;;;;;;;;;;10.50;88.20;;;;;;4994501;28;1006;-88
2022/11/06 04:04:06;;;;;;;;;;;10.30;87.50;;;;;;4999348;28;986;-88
2022/11/06 04:06:37;;;;;;;;;;;10.30;87.70;;;;;;4998105;28;2002;-88
2022/11/06 04:14:47;;;;;;;;;;;10.40;87.70;;;;;;4956789;28;1579;-89
2022/11/06 04:17:17;;;;;;;;;;;10.60;87.40;;;;;;4989069;28;1477;-91
2022/11/06 04:19:52;;;;;;;;;;;10.60;87.20;;;;;;4993542;28;1462;-89
2022/11/06 04:22:31;;;;;;;;;;;10.40;88.20;;;;;;4990443;28;1692;-91
2022/11/06 04:28:03;;;;;;;;;;;10.40;88.90;;;;;;5007715;28;1871;-88
2022/11/06 04:30:35;;;;;;;;;;;10.30;89.20;;;;;;5007918;28;1544;-88
2022/11/06 04:33:06;;;;;;;;;;;10.30;89.50;;;;;;5000968;28;1746;-88
2022/11/06 04:35:52;;;;;;;;;;;10.50;89.60;;;;;;4991598;28;1667;-90
2022/11/06 04:38:25;;;;;;;;;;;10.30;89.60;;;;;;4985929;28;1520;-88
2022/11/06 04:41:02;;;;;;;;;;;10.30;89.70;;;;;;5002400;28;1463;-89
2022/11/06 04:43:37;;;;;;;;;;;10.30;88.90;;;;;;4987066;28;1387;-89
2022/11/06 04:46:08;;;;;;;;;;;10.20;89.30;;;;;;4986722;28;1577;-89
2022/11/06 04:48:37;;;;;;;;;;;10.40;88.40;;;;;;4985271;28;1961;-89
2022/11/06 04:51:13;;;;;;;;;;;10.60;88.70;;;;;;4986592;28;1536;-90
2022/11/06 04:53:41;;;;;;;;;;;10.30;88.10;;;;;;4986680;28;1540;-89
2022/11/06 04:56:11;;;;;;;;;;;10.30;88.40;;;;;;4986766;28;1564;-91
2022/11/06 04:58:39;;;;;;;;;;;10.30;87.90;;;;;;4986940;28;1538;-91
2022/11/06 05:01:10;;;;;;;;;;;10.20;87.40;;;;;;4986965;28;1541;-88
2022/11/06 05:03:46;;;;;;;;;;;10.30;88.90;;;;;;4986961;28;1531;-90
2022/11/06 05:06:14;;;;;;;;;;;10.40;88.90;;;;;;4989608;28;1752;-92
2022/11/06 05:08:44;;;;;;;;;;;10.30;86.70;;;;;;4990297;28;1902;-90
2022/11/06 05:11:13;;;;;;;;;;;10.30;87.20;;;;;;4991210;28;1586;-90
2022/11/06 05:13:40;;;;;;;;;;;10.60;87.00;;;;;;4999259;28;1731;-89
2022/11/06 05:16:14;;;;;;;;;;;10.50;87.10;;;;;;4994140;28;1077;-88
2022/11/06 05:18:42;;;;;;;;;;;10.30;88.10;;;;;;4996028;28;1654;-87
2022/11/06 05:23:55;;;;;;;;;;;10.30;87.50;;;;;;4995646;28;1406;-90
2022/11/06 05:26:23;;;;;;;;;;;10.30;87.40;;;;;;4998314;28;958;-88
2022/11/06 05:28:51;;;;;;;;;;;10.20;87.10;;;;;;4990680;28;1977;-89
2022/11/06 05:31:20;;;;;;;;;;;10.30;87.00;;;;;;4988843;28;1453;-90
2022/11/06 05:33:48;;;;;;;;;;;10.50;88.00;;;;;;4995443;28;1505;-88
2022/11/06 05:36:16;;;;;;;;;;;10.30;87.00;;;;;;4982468;28;1557;-90
2022/11/06 05:38:44;;;;;;;;;;;10.20;86.10;;;;;;4988848;28;1560;-89
2022/11/06 05:41:12;;;;;;;;;;;10.60;86.40;;;;;;4992420;28;1578;-89
2022/11/06 05:43:46;;;;;;;;;;;10.50;86.40;;;;;;5010597;28;1442;-89
2022/11/06 05:46:14;;;;;;;;;;;10.20;86.00;;;;;;4998073;28;1752;-90
2022/11/06 05:49:03;;;;;;;;;;;10.40;86.90;;;;;;4983934;28;1987;-88
2022/11/06 05:51:34;;;;;;;;;;;10.40;87.90;;;;;;4991795;28;1676;-89
2022/11/06 05:54:03;;;;;;;;;;;10.20;86.70;;;;;;4999863;28;1619;-90
2022/11/06 05:56:34;;;;;;;;;;;10.10;86.00;;;;;;4989880;28;1636;-89
2022/11/06 05:59:01;;;;;;;;;;;10.20;87.80;;;;;;4985645;22;1041397;-68
2022/11/06 06:01:29;;;;;;;;;;;10.20;87.60;;;;;;5017865;28;1926;-68
2022/11/06 06:03:57;;;;;;;;;;;10.20;87.50;;;;;;5021497;28;994;-67
2022/11/06 06:06:26;;;;;;;;;;;10.20;87.40;;;;;;5023161;28;1045;-66
2022/11/06 06:08:53;;;;;;;;;;;10.30;87.40;;;;;;5021591;28;1977;-68
2022/11/06 06:11:22;;;;;;;;;;;10.30;87.20;;;;;;5023999;28;1604;-68
2022/11/06 06:13:50;;;;;;;;;;;10.30;87.40;;;;;;5029100;28;1529;-65
2022/11/06 06:16:17;;;;;;;;;;;10.20;87.70;;;;;;5030515;28;1146;-68
2022/11/06 06:18:45;;;;;;;;;;;10.10;88.60;;;;;;5022271;28;1218;-68
2022/11/06 06:21:13;;;;;;;;;;;10.20;88.80;;;;;;5015056;28;1740;-67
2022/11/06 06:23:42;;;;;;;;;;;10.20;89.00;;;;;;5020420;28;996;-66
2022/11/06 06:26:09;;;;;;;;;;;10.10;89.00;;;;;;5022196;28;1136;-68
2022/11/06 06:28:37;;;;;;;;;;;10.10;89.10;;;;;;5020055;28;1914;-67
2022/11/06 06:31:05;;;;;;;;;;;10.20;89.80;;;;;;5024012;28;1248;-69
2022/11/06 06:33:33;;;;;;;;;;;10.20;89.10;;;;;;5020641;28;1931;-67
2022/11/06 06:36:02;;;;;;;;;;;10.20;89.80;;;;;;5017474;28;1614;-68
2022/11/06 06:38:30;;;;;;;;;;;10.20;90.20;;;;;;5020499;28;1064;-68
2022/11/06 06:41:02;;;;;;;;;;;10.10;89.30;;;;;;5020073;28;1251;-69
2022/11/06 06:43:30;;;;;;;;;;;10.10;89.30;;;;;;5016881;28;1065;-68
2022/11/06 06:45:58;;;;;;;;;;;10.10;89.20;;;;;;5015613;28;1056;-69
2022/11/06 06:48:25;;;;;;;;;;;10.20;89.30;;;;;;5021197;28;1939;-69
2022/11/06 06:50:56;;;;;;;;;;;10.20;88.70;;;;;;5020238;28;2025;-68
2022/11/06 06:53:23;;;;;;;;;;;10.20;88.50;;;;;;5020730;28;1102;-67
2022/11/06 06:55:51;;;;;;;;;;;10.30;88.60;;;;;;5022635;28;1276;-68
2022/11/06 06:58:20;;;;;;;;;;;10.30;88.30;;;;;;5020140;28;1069;-68
2022/11/06 07:00:48;;;;;;;;;;;10.20;88.40;;;;;;5019795;28;1947;-67
2022/11/06 07:03:16;;;;;;;;;;;10.30;88.30;;;;;;5024272;28;982;-68
2022/11/06 07:05:43;;;;;;;;;;;10.30;88.30;;;;;;5031730;28;1069;-68
2022/11/06 07:08:11;;;;;;;;;;;10.40;87.80;;;;;;5025687;28;2261;-68
2022/11/06 07:10:39;;;;;;;;;;;10.30;87.80;;;;;;5030232;28;1328;-68
2022/11/06 07:13:07;;;;;;;;;;;10.40;87.60;;;;;;5037634;28;1986;-69
2022/11/06 07:15:36;;;;;;;;;;;10.30;87.40;;;;;;5037009;28;1156;-67
2022/11/06 07:18:04;;;;;;;;;;;10.40;87.30;;;;;;5034638;28;1049;-67
2022/11/06 07:20:32;;;;;;;;;;;10.40;87.50;;;;;;5042477;28;1479;-69
2022/11/06 07:23:04;;;;;;;;;;;10.40;87.40;;;;;;5042223;28;1883;-68
2022/11/06 07:25:32;;;;;;;;;;;10.40;87.60;;;;;;5042233;28;1140;-69
2022/11/06 07:28:00;;;;;;;;;;;10.50;87.20;;;;;;5033265;28;1883;-69
2022/11/06 07:30:29;;;;;;;;;;;10.40;87.10;;;;;;5039082;28;1371;-69
2022/11/06 07:32:59;;;;;;;;;;;10.50;87.10;;;;;;5034441;28;1236;-71
2022/11/06 07:35:27;;;;;;;;;;;10.60;86.80;;;;;;5037983;28;1057;-70
2022/11/06 07:37:55;;;;;;;;;;;10.50;87.00;;;;;;5040651;28;1151;-69
2022/11/06 07:40:22;;;;;;;;;;;10.50;87.00;;;;;;5043405;28;1096;-71
2022/11/06 07:42:50;;;;;;;;;;;10.50;86.80;;;;;;5040153;28;1321;-71
2022/11/06 07:45:17;;;;;;;;;;;10.60;86.80;;;;;;5038039;28;1461;-67
2022/11/06 07:47:45;;;;;;;;;;;10.60;86.70;;;;;;5033577;28;1922;-70
2022/11/06 07:50:14;;;;;;;;;;;10.70;86.60;;;;;;5025386;28;1914;-69
2022/11/06 07:52:41;;;;;;;;;;;10.70;86.40;;;;;;5024078;28;1760;-70
2022/11/06 07:55:09;;;;;;;;;;;10.70;86.40;;;;;;5017065;28;1537;-70
2022/11/06 07:57:37;;;;;;;;;;;10.80;86.40;;;;;;5018469;28;2018;-68
2022/11/06 08:00:05;;;;;;;;;;;10.80;86.40;;;;;;5027228;28;1043;-70
2022/11/06 08:02:33;;;;;;;;;;;10.80;85.90;;;;;;5019186;28;1374;-67
2022/11/06 08:05:01;;;;;;;;;;;10.80;85.90;;;;;;5022860;28;1994;-69
2022/11/06 08:07:30;;;;;;;;;;;10.90;86.00;;;;;;5026226;28;1106;-70
2022/11/06 08:09:57;;;;;;;;;;;10.90;87.10;;;;;;5022288;28;1906;-69
2022/11/06 08:12:25;;;;;;;;;;;10.90;87.60;;;;;;5018650;28;1363;-69
2022/11/06 08:14:53;;;;;;;;;;;10.90;87.80;;;;;;5024184;28;2006;-69
2022/11/06 08:17:20;;;;;;;;;;;10.90;87.30;;;;;;5020224;28;1317;-70
2022/11/06 08:19:48;;;;;;;;;;;10.90;87.60;;;;;;5030421;28;1594;-70
2022/11/06 08:22:16;;;;;;;;;;;10.90;87.00;;;;;;5027336;28;1879;-68
2022/11/06 08:24:45;;;;;;;;;;;11.00;86.30;;;;;;5023387;28;1935;-69
2022/11/06 08:27:13;;;;;;;;;;;11.00;86.40;;;;;;5024118;28;1812;-72
2022/11/06 08:29:40;;;;;;;;;;;11.00;86.30;;;;;;5022786;28;2030;-70
2022/11/06 08:32:08;;;;;;;;;;;11.20;86.20;;;;;;5027152;28;1775;-69
2022/11/06 08:34:36;;;;;;;;;;;11.30;86.60;;;;;;5030607;28;1159;-66
2022/11/06 08:37:03;;;;;;;;;;;11.40;86.00;;;;;;5024912;28;2036;-66
2022/11/06 08:39:31;;;;;;;;;;;11.40;86.10;;;;;;5024908;28;1146;-66
2022/11/06 08:42:00;;;;;;;;;;;11.40;85.90;;;;;;5027106;28;1925;-66
2022/11/06 08:44:28;;;;;;;;;;;11.50;86.20;;;;;;5024800;28;1160;-66
2022/11/06 08:46:55;;;;;;;;;;;11.60;86.60;;;;;;5022716;28;1184;-65
2022/11/06 08:49:23;;;;;;;;;;;11.60;86.30;;;;;;5025770;28;1914;-72
2022/11/06 08:51:52;;;;;;;;;;;11.70;85.70;;;;;;5028012;28;1295;-70
2022/11/06 08:54:20;;;;;;;;;;;12.00;88.10;;;;;;5026475;28;1254;-69
2022/11/06 08:56:48;;;;;;;;;;;12.20;87.90;;;;;;5028203;28;2205;-68
2022/11/06 08:59:17;;;;;;;;;;;12.40;86.60;;;;;;5022480;28;1100;-69
2022/11/06 09:01:45;;;;;;;;;;;12.60;87.50;;;;;;5029528;28;2044;-69
2022/11/06 09:04:13;;;;;;;;;;;12.70;85.90;;;;;;5030085;28;1629;-70
2022/11/06 09:06:41;;;;;;;;;;;12.80;84.60;;;;;;5027001;28;1974;-69
2022/11/06 09:09:09;;;;;;;;;;;12.60;84.20;;;;;;5021441;28;1922;-68
2022/11/06 09:11:37;;;;;;;;;;;12.40;83.80;;;;;;5027557;28;1233;-71
2022/11/06 09:14:05;;;;;;;;;;;12.30;85.30;;;;;;5024811;28;1757;-69
2022/11/06 09:16:34;;;;;;;;;;;12.50;84.30;;;;;;5023664;28;1828;-70
2022/11/06 09:19:01;;;;;;;;;;;12.50;83.60;;;;;;5023362;28;1234;-70
2022/11/06 09:21:29;;;;;;;;;;;12.50;83.40;;;;;;5030031;28;1370;-70
2022/11/06 09:23:57;;;;;;;;;;;12.40;84.40;;;;;;5025910;28;1740;-70
2022/11/06 09:26:24;;;;;;;;;;;12.50;85.40;;;;;;5026395;28;1302;-69
2022/11/06 09:28:52;;;;;;;;;;;12.50;85.10;;;;;;5027309;28;1262;-71
2022/11/06 09:31:20;;;;;;;;;;;12.40;83.20;;;;;;5027392;28;1915;-71
2022/11/06 09:33:49;;;;;;;;;;;12.20;83.60;;;;;;5025185;28;1104;-70
2022/11/06 09:36:17;;;;;;;;;;;12.30;83.60;;;;;;5024357;28;1081;-71
2022/11/06 09:38:45;;;;;;;;;;;12.30;83.60;;;;;;5026197;28;1398;-71
2022/11/06 09:41:17;;;;;;;;;;;12.40;83.70;;;;;;5025066;28;1402;-69
2022/11/06 09:43:51;;;;;;;;;;;12.40;83.40;;;;;;5025690;28;1686;-70
2022/11/06 09:46:33;;;;;;;;;;;12.40;83.30;;;;;;5024171;28;1132;-70
2022/11/06 09:49:10;;;;;;;;;;;12.40;83.50;;;;;;5025825;28;1756;-70
2022/11/06 09:51:39;;;;;;;;;;;12.40;83.50;;;;;;5024168;28;1985;-71
2022/11/06 09:54:13;;;;;;;;;;;12.50;83.00;;;;;;5023713;28;1179;-72
2022/11/06 09:56:41;;;;;;;;;;;12.60;83.10;;;;;;5023206;28;1644;-73
2022/11/06 09:59:12;;;;;;;;;;;12.60;82.90;;;;;;5016734;28;1298;-70
2022/11/06 10:01:41;;;;;;;;;;;12.70;83.00;;;;;;5021393;28;1986;-70
2022/11/06 10:04:16;;;;;;;;;;;12.60;82.90;;;;;;5020645;28;1433;-71
2022/11/06 10:06:44;;;;;;;;;;;12.70;83.00;;;;;;5021384;28;1149;-73
2022/11/06 10:09:12;;;;;;;;;;;12.70;82.70;;;;;;5023937;28;1037;-71
2022/11/06 10:11:47;;;;;;;;;;;12.70;83.00;;;;;;5022678;28;1914;-71
2022/11/06 10:14:22;;;;;;;;;;;12.70;83.20;;;;;;5025670;28;1346;-70
2022/11/06 10:16:54;;;;;;;;;;;12.70;83.00;;;;;;5025450;28;1369;-70
2022/11/06 10:19:27;;;;;;;;;;;12.80;83.00;;;;;;5024074;28;1187;-70
2022/11/06 10:21:59;;;;;;;;;;;12.70;82.70;;;;;;5020845;28;1619;-71
2022/11/06 10:24:32;;;;;;;;;;;12.70;82.80;;;;;;5024009;28;1115;-71
2022/11/06 10:27:01;;;;;;;;;;;12.70;83.00;;;;;;5025180;28;1235;-71
2022/11/06 10:29:40;;;;;;;;;;;12.80;83.10;;;;;;5026255;28;1061;-71
2022/11/06 10:32:26;;;;;;;;;;;12.80;82.80;;;;;;5021557;28;1291;-71
2022/11/06 10:34:59;;;;;;;;;;;12.80;83.40;;;;;;5020687;28;2017;-71
2022/11/06 10:37:28;;;;;;;;;;;12.60;83.20;;;;;;5021194;28;1974;-71
2022/11/06 10:39:56;;;;;;;;;;;12.60;83.60;;;;;;5015669;28;1018;-70
2022/11/06 10:42:29;;;;;;;;;;;12.50;83.70;;;;;;5018997;28;1391;-71
2022/11/06 10:45:05;;;;;;;;;;;12.50;84.00;;;;;;5022996;28;1994;-72
2022/11/06 10:47:34;;;;;;;;;;;12.50;84.00;;;;;;5020638;28;1310;-70
2022/11/06 10:50:04;;;;;;;;;;;12.50;83.70;;;;;;5020468;28;1914;-71
2022/11/06 10:52:41;;;;;;;;;;;12.60;84.00;;;;;;5021692;28;1298;-73
2022/11/06 10:55:20;;;;;;;;;;;12.60;83.70;;;;;;5022189;28;1005;-70
2022/11/06 10:57:52;;;;;;;;;;;12.60;83.60;;;;;;5020148;28;1255;-72
2022/11/06 11:00:19;;;;;;;;;;;12.70;84.00;;;;;;5021833;28;2009;-70
2022/11/06 11:02:49;;;;;;;;;;;12.80;84.10;;;;;;5027664;28;1305;-70
2022/11/06 11:05:19;;;;;;;;;;;12.90;84.10;;;;;;5023269;28;1053;-71
2022/11/06 11:07:48;;;;;;;;;;;13.00;83.70;;;;;;5022934;28;1009;-71
2022/11/06 11:10:26;;;;;;;;;;;13.10;83.40;;;;;;5022087;28;1910;-71
2022/11/06 11:12:55;;;;;;;;;;;13.30;83.00;;;;;;5018961;28;1380;-71
2022/11/06 11:15:23;;;;;;;;;;;13.40;82.60;;;;;;5019625;28;2022;-72
2022/11/06 11:18:07;;;;;;;;;;;13.40;82.80;;;;;;5023682;28;1071;-71
2022/11/06 11:20:37;;;;;;;;;;;13.40;82.60;;;;;;5024450;28;1982;-70
2022/11/06 11:23:06;;;;;;;;;;;13.20;83.20;;;;;;5021340;28;1080;-70
2022/11/06 11:25:34;;;;;;;;;;;13.20;83.30;;;;;;5020749;28;1803;-72
2022/11/06 11:28:03;;;;;;;;;;;13.20;83.20;;;;;;5016842;28;966;-70
2022/11/06 11:30:31;;;;;;;;;;;13.30;83.00;;;;;;5023649;28;1910;-71
2022/11/06 11:32:59;;;;;;;;;;;13.30;83.10;;;;;;5023167;28;1938;-72
2022/11/06 11:35:28;;;;;;;;;;;13.30;83.00;;;;;;5018337;28;1090;-71
2022/11/06 11:38:07;;;;;;;;;;;13.30;82.90;;;;;;5022448;28;1049;-71
2022/11/06 11:40:36;;;;;;;;;;;13.30;83.00;;;;;;5017133;28;2116;-71
2022/11/06 11:43:17;;;;;;;;;;;13.40;83.10;;;;;;5014563;28;1247;-71
2022/11/06 11:46:00;;;;;;;;;;;13.40;83.10;;;;;;5017939;28;986;-72
2022/11/06 11:48:40;;;;;;;;;;;13.30;83.50;;;;;;5027514;28;1191;-72
2022/11/06 11:51:12;;;;;;;;;;;13.50;83.30;;;;;;5025164;28;1955;-71
2022/11/06 11:53:41;;;;;;;;;;;13.50;83.30;;;;;;5025595;28;1048;-71
2022/11/06 11:56:13;;;;;;;;;;;13.40;83.10;;;;;;5026162;28;1025;-70
2022/11/06 11:58:41;;;;;;;;;;;13.30;83.20;;;;;;5017439;28;930;-70
2022/11/06 12:01:08;;;;;;;;;;;13.30;83.20;;;;;;5018272;28;1660;-71
2022/11/06 12:03:39;;;;;;;;;;;13.30;83.40;;;;;;5024845;28;2029;-72
2022/11/06 12:06:09;;;;;;;;;;;13.40;83.40;;;;;;5022776;28;1041;-72
2022/11/06 12:08:38;;;;;;;;;;;13.40;83.30;;;;;;5017641;28;1280;-70
2022/11/06 12:11:07;;;;;;;;;;;13.50;83.40;;;;;;5022576;28;1906;-71
2022/11/06 12:13:35;;;;;;;;;;;13.60;82.80;;;;;;5024458;28;1105;-72
2022/11/06 12:16:05;;;;;;;;;;;13.80;82.60;;;;;;5017741;28;1293;-71
2022/11/06 12:18:33;;;;;;;;;;;14.00;82.90;;;;;;5022473;28;1225;-70
2022/11/06 12:21:03;;;;;;;;;;;14.10;81.90;;;;;;5023614;28;1378;-71
2022/11/06 12:23:34;;;;;;;;;;;14.10;81.70;;;;;;5025880;28;1056;-72
2022/11/06 12:26:05;;;;;;;;;;;14.20;81.50;;;;;;5025002;28;1143;-72
2022/11/06 12:28:36;;;;;;;;;;;14.10;81.10;;;;;;5024767;28;1113;-73
2022/11/06 12:31:06;;;;;;;;;;;14.20;81.50;;;;;;5018057;28;1981;-73
2022/11/06 12:33:37;;;;;;;;;;;14.20;81.10;;;;;;5025616;28;1173;-72
2022/11/06 12:36:26;;;;;;;;;;;14.10;81.10;;;;;;5030373;28;1700;-73
2022/11/06 12:38:55;;;;;;;;;;;14.10;81.40;;;;;;5035359;28;1017;-71
2022/11/06 12:41:25;;;;;;;;;;;14.00;81.10;;;;;;5022463;28;1795;-72
2022/11/06 12:43:55;;;;;;;;;;;14.10;81.50;;;;;;5017184;28;1484;-72
2022/11/06 12:46:29;;;;;;;;;;;14.10;81.30;;;;;;5022697;28;1046;-73
2022/11/06 12:49:17;;;;;;;;;;;14.00;81.20;;;;;;5022398;28;1160;-73
2022/11/06 12:51:50;;;;;;;;;;;14.00;80.90;;;;;;5024737;28;1887;-73
2022/11/06 12:54:24;;;;;;;;;;;14.10;81.30;;;;;;5025178;28;1149;-75
2022/11/06 12:56:56;;;;;;;;;;;14.20;81.30;;;;;;5017325;28;1017;-72
2022/11/06 12:59:32;;;;;;;;;;;14.30;81.00;;;;;;5020021;28;2013;-75
2022/11/06 13:02:04;;;;;;;;;;;14.30;81.20;;;;;;5016993;28;1374;-70
2022/11/06 13:04:40;;;;;;;;;;;14.30;81.10;;;;;;5017132;28;875;-71
2022/11/06 13:07:19;;;;;;;;;;;14.30;80.90;;;;;;5023332;28;1044;-70
2022/11/06 13:09:51;;;;;;;;;;;14.40;81.20;;;;;;5023472;28;1268;-70
2022/11/06 13:12:22;;;;;;;;;;;14.40;81.00;;;;;;5023001;28;1906;-70
2022/11/06 13:14:57;;;;;;;;;;;14.40;81.20;;;;;;5022405;28;1073;-70
2022/11/06 13:17:28;;;;;;;;;;;14.40;80.80;;;;;;5016623;28;1067;-71
2022/11/06 13:19:58;;;;;;;;;;;14.30;81.00;;;;;;5022430;28;1257;-69
2022/11/06 13:22:29;;;;;;;;;;;14.20;80.50;;;;;;5026118;28;1386;-70
2022/11/06 13:25:00;;;;;;;;;;;14.40;80.90;;;;;;5021142;28;1058;-69
2022/11/06 13:27:30;;;;;;;;;;;14.40;81.00;;;;;;5022963;28;1124;-69
2022/11/06 13:30:01;;;;;;;;;;;14.30;80.80;;;;;;5017119;28;1092;-69
2022/11/06 13:32:31;;;;;;;;;;;14.30;80.80;;;;;;5017193;28;1899;-70
2022/11/06 13:34:59;;;;;;;;;;;14.20;80.30;;;;;;5018414;28;1006;-69
2022/11/06 13:37:34;;;;;;;;;;;14.30;80.70;;;;;;5022943;28;1132;-69
2022/11/06 13:40:05;;;;;;;;;;;14.40;80.50;;;;;;5021927;28;1264;-70
2022/11/06 13:42:36;;;;;;;;;;;14.50;80.50;;;;;;5025366;28;1456;-69
2022/11/06 13:45:06;;;;;;;;;;;14.40;80.00;;;;;;5024930;28;1674;-70
2022/11/06 13:47:36;;;;;;;;;;;14.20;80.00;;;;;;5025644;28;1096;-71
2022/11/06 13:50:05;;;;;;;;;;;14.30;80.00;;;;;;5018062;28;1256;-71
2022/11/06 13:52:37;;;;;;;;;;;14.30;80.30;;;;;;5025867;28;1916;-70
2022/11/06 13:55:13;;;;;;;;;;;14.30;80.20;;;;;;5016610;28;1740;-70
2022/11/06 13:57:54;;;;;;;;;;;14.20;80.40;;;;;;5021714;28;989;-70
2022/11/06 14:00:23;;;;;;;;;;;14.20;80.70;;;;;;5024322;28;1009;-70
2022/11/06 14:03:09;;;;;;;;;;;14.00;81.60;;;;;;5021722;28;1303;-70
2022/11/06 14:05:53;;;;;;;;;;;13.80;81.90;;;;;;5021110;28;977;-70
2022/11/06 14:08:23;;;;;;;;;;;13.70;82.10;;;;;;5022758;28;1149;-70
2022/11/06 14:10:53;;;;;;;;;;;13.60;82.70;;;;;;5016725;28;1288;-69
2022/11/06 14:13:28;;;;;;;;;;;13.50;83.00;;;;;;5014715;28;1980;-69
2022/11/06 14:16:05;;;;;;;;;;;13.40;83.00;;;;;;5023255;28;1954;-69
2022/11/06 14:18:33;;;;;;;;;;;13.30;83.40;;;;;;5022867;28;1129;-70
2022/11/06 14:21:19;;;;;;;;;;;13.30;83.20;;;;;;5020148;28;1430;-70
2022/11/06 14:23:51;;;;;;;;;;;13.20;83.70;;;;;;5019437;28;1093;-71
2022/11/06 14:26:34;;;;;;;;;;;13.10;83.40;;;;;;5022572;28;1538;-70
2022/11/06 14:29:16;;;;;;;;;;;13.00;83.20;;;;;;5014495;28;1326;-71
2022/11/06 14:32:01;;;;;;;;;;;13.00;83.40;;;;;;5019327;28;1768;-70
2022/11/06 14:34:30;;;;;;;;;;;13.00;83.50;;;;;;5020862;28;1098;-71
2022/11/06 14:36:57;;;;;;;;;;;12.90;83.80;;;;;;5021116;28;1154;-70
2022/11/06 14:39:49;;;;;;;;;;;13.10;84.00;;;;;;5021228;28;1504;-70
2022/11/06 14:42:18;;;;;;;;;;;12.90;84.00;;;;;;5023785;28;1265;-70
2022/11/06 14:44:54;;;;;;;;;;;12.80;84.20;;;;;;5026797;28;1113;-70
2022/11/06 14:47:26;;;;;;;;;;;12.80;84.40;;;;;;5045320;28;1650;-68
2022/11/06 14:49:54;;;;;;;;;;;12.80;84.50;;;;;;5024311;28;1942;-69
2022/11/06 14:52:23;;;;;;;;;;;12.70;84.60;;;;;;5021978;28;1998;-70
2022/11/06 14:54:53;;;;;;;;;;;12.70;84.80;;;;;;5021517;28;1152;-70
2022/11/06 14:57:34;;;;;;;;;;;12.70;84.80;;;;;;5019842;28;1171;-69
2022/11/06 15:00:02;;;;;;;;;;;12.60;84.90;;;;;;5018198;28;1323;-70
2022/11/06 15:02:33;;;;;;;;;;;12.70;85.00;;;;;;5022674;28;1290;-71
2022/11/06 15:05:01;;;;;;;;;;;12.60;85.10;;;;;;5021894;28;1061;-70
2022/11/06 15:07:34;;;;;;;;;;;12.60;85.20;;;;;;5020486;28;2164;-69